Time;durP1;ratioP1;P1;durP2;ratioP2;P2;SDS_P1;SDS_P2;PMS_P1;PMS_P2;Temp;Humidity;BMP_temperature;BMP_pressure;BME280_temperature;BME280_humidity;BME280_pressure;Samples;Min_cycle;Max_cycle;Signal;HPM_P1;HPM_P2
2023/01/10 00:00:49;;;;;;;;;;;4.80;99.90;;;;;;4830643;29;20068;-71
2023/01/10 00:03:14;;;;;;;;;;;4.80;99.90;;;;;;4853175;29;20416;-71
2023/01/10 00:05:40;;;;;;;;;;;4.90;99.90;;;;;;4845908;29;19932;-71
2023/01/10 00:08:06;;;;;;;;;;;5.00;99.90;;;;;;4847234;29;19935;-71
2023/01/10 00:10:32;;;;;;;;;;;5.10;99.90;;;;;;4838771;29;20007;-71
2023/01/10 00:15:43;;;;;;;;;;;5.20;99.90;;;;;;4862636;29;19931;-71
2023/01/10 00:18:08;;;;;;;;;;;5.30;99.90;;;;;;4856227;29;19984;-71
2023/01/10 00:20:34;;;;;;;;;;;5.40;99.90;;;;;;4841100;29;19928;-71
2023/01/10 00:23:00;;;;;;;;;;;5.40;99.90;;;;;;4840734;29;19923;-71
2023/01/10 00:25:25;;;;;;;;;;;5.40;99.90;;;;;;4845691;29;19932;-71
2023/01/10 00:28:03;;;;;;;;;;;5.50;99.90;;;;;;4856500;29;20513;-71
2023/01/10 00:30:29;;;;;;;;;;;5.50;99.90;;;;;;4841617;29;19924;-71
2023/01/10 00:32:55;;;;;;;;;;;5.50;99.90;;;;;;4847951;29;20344;-71
2023/01/10 00:35:21;;;;;;;;;;;5.50;99.90;;;;;;4856259;29;19928;-71
2023/01/10 00:37:47;;;;;;;;;;;5.50;99.90;;;;;;4840696;29;19978;-70
2023/01/10 00:40:12;;;;;;;;;;;5.50;99.90;;;;;;4843096;29;19924;-71
2023/01/10 00:45:23;;;;;;;;;;;5.50;99.90;;;;;;4851900;29;20449;-71
2023/01/10 00:47:49;;;;;;;;;;;5.50;99.90;;;;;;4857965;29;19939;-71
2023/01/10 00:50:15;;;;;;;;;;;5.60;99.90;;;;;;4860660;29;19924;-71
2023/01/10 00:52:41;;;;;;;;;;;5.50;99.90;;;;;;4859823;29;19979;-71
2023/01/10 00:55:07;;;;;;;;;;;5.50;99.90;;;;;;4859943;29;19927;-71
2023/01/10 00:57:32;;;;;;;;;;;5.50;99.90;;;;;;4851255;29;19928;-71
2023/01/10 00:59:58;;;;;;;;;;;5.40;99.90;;;;;;4857243;29;19931;-71
2023/01/10 01:02:23;;;;;;;;;;;5.30;99.90;;;;;;4866831;29;20347;-71
2023/01/10 01:04:49;;;;;;;;;;;5.30;99.90;;;;;;4857163;29;20348;-71
2023/01/10 01:07:14;;;;;;;;;;;5.30;99.90;;;;;;4844511;29;20049;-71
2023/01/10 01:10:25;;;;;;;;;;;5.30;99.90;;;;;;4859054;29;19988;-71
2023/01/10 01:12:25;;;;;;;;;;;5.30;99.90;;;;;;4859336;29;20257;-71
2023/01/10 01:14:51;;;;;;;;;;;5.30;99.90;;;;;;4859056;29;19936;-71
2023/01/10 01:17:17;;;;;;;;;;;5.40;99.90;;;;;;4852954;29;19932;-71
2023/01/10 01:19:43;;;;;;;;;;;5.50;99.90;;;;;;4859469;29;19924;-71
2023/01/10 01:22:08;;;;;;;;;;;5.50;99.90;;;;;;4855987;29;19928;-71
2023/01/10 01:24:34;;;;;;;;;;;5.50;99.90;;;;;;4824931;29;20018;-71
2023/01/10 01:26:59;;;;;;;;;;;5.60;99.90;;;;;;4856533;29;19931;-71
2023/01/10 01:29:25;;;;;;;;;;;5.60;99.90;;;;;;4842482;29;20445;-71
2023/01/10 01:31:50;;;;;;;;;;;5.70;99.90;;;;;;4848463;29;19928;-71
2023/01/10 01:34:16;;;;;;;;;;;5.80;99.90;;;;;;4854186;29;19923;-71
2023/01/10 01:36:41;;;;;;;;;;;5.80;99.90;;;;;;4856043;29;19932;-71
2023/01/10 01:39:07;;;;;;;;;;;5.80;99.90;;;;;;4846421;29;20015;-71
2023/01/10 01:44:18;;;;;;;;;;;5.80;99.90;;;;;;4845486;29;20142;-71
2023/01/10 01:47:13;;;;;;;;;;;5.80;99.90;;;;;;4860270;29;19924;-71
2023/01/10 01:49:39;;;;;;;;;;;5.80;99.90;;;;;;4844713;29;20424;-71
2023/01/10 01:52:07;;;;;;;;;;;5.80;99.90;;;;;;4854084;29;19931;-71
2023/01/10 01:54:34;;;;;;;;;;;5.80;99.90;;;;;;4856224;29;20068;-71
2023/01/10 01:57:02;;;;;;;;;;;5.80;99.90;;;;;;4836594;29;19932;-71
2023/01/10 01:59:35;;;;;;;;;;;5.80;99.90;;;;;;4854244;29;19924;-71
2023/01/10 02:02:06;;;;;;;;;;;5.80;99.90;;;;;;4856934;29;19932;-71
2023/01/10 02:04:47;;;;;;;;;;;5.80;99.90;;;;;;4858861;29;19953;-71
2023/01/10 02:07:13;;;;;;;;;;;5.90;99.90;;;;;;4858632;29;19924;-71
2023/01/10 02:09:39;;;;;;;;;;;5.90;99.90;;;;;;4858066;29;19935;-71
2023/01/10 02:12:04;;;;;;;;;;;6.00;99.90;;;;;;4857520;29;19947;-71
2023/01/10 02:14:30;;;;;;;;;;;6.00;99.90;;;;;;4834121;29;19952;-71
2023/01/10 02:16:56;;;;;;;;;;;6.00;99.90;;;;;;4848145;29;20450;-71
2023/01/10 02:19:28;;;;;;;;;;;6.00;99.90;;;;;;4839638;29;20019;-71
2023/01/10 02:22:04;;;;;;;;;;;6.00;99.90;;;;;;4848948;29;19993;-71
2023/01/10 02:24:47;;;;;;;;;;;6.00;99.90;;;;;;4850996;29;20293;-71
2023/01/10 02:27:25;;;;;;;;;;;5.90;99.90;;;;;;4847980;29;20255;-71
2023/01/10 02:29:53;;;;;;;;;;;5.90;99.90;;;;;;4847034;29;19932;-71
2023/01/10 02:32:23;;;;;;;;;;;5.80;99.90;;;;;;4847917;29;19928;-71
2023/01/10 02:34:55;;;;;;;;;;;5.80;99.90;;;;;;4852267;29;19976;-71
2023/01/10 02:37:39;;;;;;;;;;;5.80;99.90;;;;;;4846308;29;19941;-71
2023/01/10 02:40:08;;;;;;;;;;;5.70;99.90;;;;;;4856333;29;20389;-71
2023/01/10 02:42:51;;;;;;;;;;;5.80;99.90;;;;;;4846217;29;19932;-71
2023/01/10 02:45:20;;;;;;;;;;;5.70;99.90;;;;;;4855522;29;20437;-71
2023/01/10 02:47:45;;;;;;;;;;;5.80;99.90;;;;;;4854194;29;19932;-71
2023/01/10 02:50:30;;;;;;;;;;;5.80;99.90;;;;;;4848392;29;20350;-71
2023/01/10 02:52:57;;;;;;;;;;;5.80;99.90;;;;;;4830751;29;19932;-71
2023/01/10 02:55:27;;;;;;;;;;;5.80;99.90;;;;;;4842380;29;20438;-71
2023/01/10 02:58:05;;;;;;;;;;;5.90;99.90;;;;;;4850892;29;19977;-71
2023/01/10 03:00:56;;;;;;;;;;;5.90;99.90;;;;;;4848483;29;19936;-71
2023/01/10 03:03:32;;;;;;;;;;;5.90;99.90;;;;;;4854644;29;19936;-70
2023/01/10 03:06:06;;;;;;;;;;;5.90;99.90;;;;;;4854989;29;19928;-70
2023/01/10 03:08:40;;;;;;;;;;;5.90;99.90;;;;;;4854061;29;19928;-70
2023/01/10 03:11:07;;;;;;;;;;;5.90;99.90;;;;;;4832417;29;19924;-70
2023/01/10 03:13:47;;;;;;;;;;;5.90;99.90;;;;;;4853463;29;19932;-70
2023/01/10 03:16:15;;;;;;;;;;;5.80;99.90;;;;;;4860483;29;19932;-70
2023/01/10 03:18:44;;;;;;;;;;;5.80;99.90;;;;;;4846823;29;19932;-70
2023/01/10 03:21:10;;;;;;;;;;;5.80;99.90;;;;;;4831522;29;20378;-71
2023/01/10 03:23:36;;;;;;;;;;;5.80;99.90;;;;;;4847056;29;19939;-71
2023/01/10 03:26:03;;;;;;;;;;;5.80;99.90;;;;;;4839038;29;19924;-71
2023/01/10 03:28:46;;;;;;;;;;;5.70;99.90;;;;;;4836487;29;21296;-71
2023/01/10 03:31:18;;;;;;;;;;;5.70;99.90;;;;;;4850637;29;20393;-71
2023/01/10 03:33:43;;;;;;;;;;;5.60;99.90;;;;;;4845013;29;19928;-71
2023/01/10 03:36:20;;;;;;;;;;;5.50;99.90;;;;;;4845879;29;19984;-71
2023/01/10 03:38:53;;;;;;;;;;;5.40;99.90;;;;;;4846720;29;19925;-71
2023/01/10 03:41:33;;;;;;;;;;;5.40;99.90;;;;;;4844002;29;20315;-71
2023/01/10 03:47:03;;;;;;;;;;;5.40;99.90;;;;;;4845979;29;20402;-71
2023/01/10 03:49:31;;;;;;;;;;;5.30;99.90;;;;;;4846361;29;19947;-71
2023/01/10 03:51:57;;;;;;;;;;;5.30;99.90;;;;;;4853318;29;19992;-71
2023/01/10 03:54:22;;;;;;;;;;;5.30;99.90;;;;;;4851551;29;19931;-71
2023/01/10 03:56:49;;;;;;;;;;;5.40;99.90;;;;;;4847017;29;20418;-71
2023/01/10 03:59:20;;;;;;;;;;;5.40;99.90;;;;;;4844688;29;19935;-71
2023/01/10 04:01:45;;;;;;;;;;;5.50;99.90;;;;;;4844925;29;20398;-71
2023/01/10 04:04:11;;;;;;;;;;;5.60;99.90;;;;;;4822148;29;19988;-70
2023/01/10 04:06:37;;;;;;;;;;;5.70;99.90;;;;;;4848381;29;19925;-70
2023/01/10 04:09:02;;;;;;;;;;;5.70;99.90;;;;;;4845443;29;19925;-70
2023/01/10 04:11:28;;;;;;;;;;;5.60;99.90;;;;;;4849418;29;19924;-70
2023/01/10 04:13:54;;;;;;;;;;;5.60;99.90;;;;;;4853376;29;19961;-70
2023/01/10 04:16:19;;;;;;;;;;;5.60;99.90;;;;;;4853427;29;20389;-70
2023/01/10 04:18:45;;;;;;;;;;;5.60;99.90;;;;;;4838086;29;19928;-70
2023/01/10 04:21:11;;;;;;;;;;;5.60;99.90;;;;;;4853895;29;19939;-70
2023/01/10 04:23:36;;;;;;;;;;;5.50;99.90;;;;;;4854008;29;20331;-70
2023/01/10 04:26:02;;;;;;;;;;;5.60;99.90;;;;;;4844607;29;19928;-70
2023/01/10 04:28:27;;;;;;;;;;;5.60;99.90;;;;;;4842898;29;19980;-70
2023/01/10 04:30:53;;;;;;;;;;;5.50;99.90;;;;;;4839216;29;19928;-70
2023/01/10 04:33:18;;;;;;;;;;;5.50;99.90;;;;;;4852461;29;19930;-70
2023/01/10 04:35:48;;;;;;;;;;;5.50;99.90;;;;;;4852213;29;19951;-70
2023/01/10 04:38:13;;;;;;;;;;;5.50;99.90;;;;;;4850974;29;19928;-70
2023/01/10 04:40:39;;;;;;;;;;;5.50;99.90;;;;;;4850562;29;19936;-70
2023/01/10 04:43:04;;;;;;;;;;;5.40;99.90;;;;;;4842311;29;19925;-70
2023/01/10 04:45:30;;;;;;;;;;;5.40;99.90;;;;;;4848782;29;20069;-70
2023/01/10 04:47:56;;;;;;;;;;;5.40;99.90;;;;;;4856979;29;19924;-70
2023/01/10 04:50:22;;;;;;;;;;;5.40;99.90;;;;;;4854842;29;19924;-70
2023/01/10 04:52:48;;;;;;;;;;;5.40;99.90;;;;;;4849530;29;19981;-70
2023/01/10 04:55:13;;;;;;;;;;;5.40;99.90;;;;;;4853225;29;19936;-70
2023/01/10 04:57:39;;;;;;;;;;;5.50;99.90;;;;;;4858826;29;20492;-70
2023/01/10 05:00:05;;;;;;;;;;;5.50;99.90;;;;;;4857938;29;20023;-70
2023/01/10 05:02:30;;;;;;;;;;;5.50;99.90;;;;;;4848715;29;19935;-70
2023/01/10 05:04:56;;;;;;;;;;;5.50;99.90;;;;;;4852750;29;20300;-70
2023/01/10 05:07:21;;;;;;;;;;;5.50;99.90;;;;;;4852098;29;19931;-70
2023/01/10 05:09:47;;;;;;;;;;;5.40;99.90;;;;;;4852608;29;19932;-70
2023/01/10 05:12:13;;;;;;;;;;;5.40;99.90;;;;;;4857883;29;19924;-70
2023/01/10 05:14:38;;;;;;;;;;;5.30;99.90;;;;;;4851960;29;19932;-70
2023/01/10 05:17:04;;;;;;;;;;;5.30;99.90;;;;;;4843263;29;20008;-70
2023/01/10 05:19:29;;;;;;;;;;;5.20;99.90;;;;;;4838617;29;20373;-70
2023/01/10 05:21:55;;;;;;;;;;;5.20;99.90;;;;;;4857487;29;20023;-70
2023/01/10 05:24:21;;;;;;;;;;;5.10;99.90;;;;;;4858765;29;19928;-70
2023/01/10 05:26:46;;;;;;;;;;;5.10;99.90;;;;;;4851262;29;20311;-70
2023/01/10 05:29:13;;;;;;;;;;;5.10;99.90;;;;;;4845814;29;19951;-70
2023/01/10 05:31:39;;;;;;;;;;;5.10;99.90;;;;;;4857229;29;19934;-70
2023/01/10 05:34:04;;;;;;;;;;;5.00;99.90;;;;;;4849302;29;19931;-70
2023/01/10 05:36:30;;;;;;;;;;;5.00;99.90;;;;;;4853882;29;19980;-70
2023/01/10 05:38:55;;;;;;;;;;;4.90;99.90;;;;;;4848722;29;19947;-70
2023/01/10 05:41:22;;;;;;;;;;;4.80;99.90;;;;;;4848834;29;20003;-70
2023/01/10 05:43:48;;;;;;;;;;;4.70;99.90;;;;;;4842064;29;19932;-70
2023/01/10 05:46:22;;;;;;;;;;;4.60;99.90;;;;;;4845228;29;20013;-70
2023/01/10 05:48:47;;;;;;;;;;;4.50;99.90;;;;;;4855848;29;19932;-70
2023/01/10 05:51:13;;;;;;;;;;;4.40;99.90;;;;;;4854796;29;19931;-70
2023/01/10 05:53:39;;;;;;;;;;;4.30;99.90;;;;;;4842069;29;20354;-70
2023/01/10 05:56:06;;;;;;;;;;;4.20;99.90;;;;;;4831145;29;19936;-70
2023/01/10 05:58:32;;;;;;;;;;;4.10;99.90;;;;;;4870673;29;19944;-70
2023/01/10 06:00:57;;;;;;;;;;;4.10;99.90;;;;;;4845815;29;19932;-70
2023/01/10 06:03:25;;;;;;;;;;;4.00;99.90;;;;;;4845571;29;19928;-70
2023/01/10 06:05:51;;;;;;;;;;;4.00;99.90;;;;;;4853352;29;19928;-70
2023/01/10 06:08:17;;;;;;;;;;;3.90;99.90;;;;;;4867713;29;20002;-70
2023/01/10 06:10:42;;;;;;;;;;;3.90;99.90;;;;;;4852318;29;20032;-70
2023/01/10 06:13:08;;;;;;;;;;;3.80;99.90;;;;;;4854359;29;19928;-70
2023/01/10 06:15:34;;;;;;;;;;;3.80;99.90;;;;;;4870040;29;19928;-70
2023/01/10 06:18:00;;;;;;;;;;;3.80;99.90;;;;;;4847002;29;19928;-70
2023/01/10 06:20:26;;;;;;;;;;;3.80;99.90;;;;;;4858149;29;20681;-70
2023/01/10 06:22:51;;;;;;;;;;;3.80;99.90;;;;;;4851277;29;19925;-70
2023/01/10 06:25:17;;;;;;;;;;;3.80;99.90;;;;;;4857048;29;19924;-70
2023/01/10 06:27:43;;;;;;;;;;;3.80;99.90;;;;;;4842574;29;20015;-70
2023/01/10 06:30:10;;;;;;;;;;;3.90;99.90;;;;;;4857270;29;19932;-70
2023/01/10 06:32:36;;;;;;;;;;;4.00;99.90;;;;;;4847476;29;20381;-70
2023/01/10 06:35:01;;;;;;;;;;;4.10;99.90;;;;;;4856882;29;19938;-71
2023/01/10 06:37:27;;;;;;;;;;;4.30;99.90;;;;;;4852957;29;20393;-71
2023/01/10 06:39:52;;;;;;;;;;;4.40;99.90;;;;;;4839822;29;19924;-70
2023/01/10 06:42:18;;;;;;;;;;;4.70;99.90;;;;;;4842517;29;19930;-70
2023/01/10 06:44:44;;;;;;;;;;;4.90;99.90;;;;;;4837442;29;19928;-70
2023/01/10 06:47:09;;;;;;;;;;;5.00;99.90;;;;;;4861242;29;19924;-70
2023/01/10 06:49:35;;;;;;;;;;;5.10;99.90;;;;;;4856824;29;19935;-70
2023/01/10 06:52:00;;;;;;;;;;;5.20;99.90;;;;;;4851115;29;19928;-70
2023/01/10 06:54:26;;;;;;;;;;;5.30;99.90;;;;;;4836992;29;19939;-70
2023/01/10 06:56:51;;;;;;;;;;;5.30;99.90;;;;;;4853671;29;20019;-70
2023/01/10 06:59:17;;;;;;;;;;;5.50;99.90;;;;;;4840711;29;19924;-70
2023/01/10 07:01:42;;;;;;;;;;;5.50;99.90;;;;;;4850168;29;20428;-70
2023/01/10 07:04:08;;;;;;;;;;;5.60;99.90;;;;;;4840925;29;19931;-70
2023/01/10 07:06:37;;;;;;;;;;;5.60;99.90;;;;;;4842688;29;20331;-70
2023/01/10 07:09:04;;;;;;;;;;;5.70;99.90;;;;;;4857351;29;20026;-70
2023/01/10 07:11:30;;;;;;;;;;;5.70;99.90;;;;;;4857241;29;19974;-70
2023/01/10 07:13:56;;;;;;;;;;;5.70;99.90;;;;;;4849444;29;19960;-70
2023/01/10 07:16:22;;;;;;;;;;;5.70;99.90;;;;;;4857324;29;19954;-70
2023/01/10 07:18:47;;;;;;;;;;;5.60;99.90;;;;;;4842258;29;19923;-70
2023/01/10 07:21:14;;;;;;;;;;;5.60;99.90;;;;;;4851906;29;20304;-70
2023/01/10 07:23:39;;;;;;;;;;;5.50;99.90;;;;;;4842183;29;19928;-70
2023/01/10 07:26:10;;;;;;;;;;;5.40;99.90;;;;;;4852134;29;19991;-70
2023/01/10 07:28:36;;;;;;;;;;;5.30;99.90;;;;;;4854132;29;20373;-70
2023/01/10 07:31:03;;;;;;;;;;;5.20;99.90;;;;;;4854564;29;19924;-71
2023/01/10 07:33:29;;;;;;;;;;;5.10;99.90;;;;;;4855672;29;20401;-71
2023/01/10 07:35:54;;;;;;;;;;;5.00;99.90;;;;;;4854413;29;19932;-71
2023/01/10 07:38:20;;;;;;;;;;;4.90;99.90;;;;;;4841407;29;19944;-71
2023/01/10 07:40:46;;;;;;;;;;;4.80;99.90;;;;;;4846891;29;19974;-71
2023/01/10 07:43:11;;;;;;;;;;;4.70;99.90;;;;;;4855951;29;20349;-71
2023/01/10 07:45:40;;;;;;;;;;;4.70;99.90;;;;;;4875099;29;19923;-71
2023/01/10 07:48:05;;;;;;;;;;;4.60;99.90;;;;;;4857156;29;20452;-71
2023/01/10 07:50:33;;;;;;;;;;;4.60;99.90;;;;;;4857130;29;20282;-71
2023/01/10 07:52:59;;;;;;;;;;;4.60;99.90;;;;;;4837885;29;20014;-70
2023/01/10 07:55:24;;;;;;;;;;;4.60;99.90;;;;;;4847381;29;19953;-70
2023/01/10 07:57:50;;;;;;;;;;;4.50;99.90;;;;;;4855836;29;19932;-71
2023/01/10 08:00:16;;;;;;;;;;;4.50;99.90;;;;;;4856711;29;19924;-71
2023/01/10 08:02:42;;;;;;;;;;;4.50;99.90;;;;;;4847747;29;19959;-71
2023/01/10 08:05:09;;;;;;;;;;;4.50;99.90;;;;;;4846204;29;19928;-71
2023/01/10 08:07:35;;;;;;;;;;;4.40;99.90;;;;;;4845374;29;19967;-72
2023/01/10 08:10:01;;;;;;;;;;;4.40;99.90;;;;;;4856606;29;20070;-71
2023/01/10 08:12:26;;;;;;;;;;;4.40;99.90;;;;;;4856727;29;20384;-71
2023/01/10 08:14:54;;;;;;;;;;;4.40;99.90;;;;;;4856383;29;21337;-71
2023/01/10 08:17:20;;;;;;;;;;;4.40;99.90;;;;;;4853061;29;19928;-71
2023/01/10 08:19:45;;;;;;;;;;;4.40;99.90;;;;;;4865502;29;19928;-71
2023/01/10 08:22:11;;;;;;;;;;;4.40;99.90;;;;;;4845371;29;19939;-71
2023/01/10 08:24:36;;;;;;;;;;;4.40;99.90;;;;;;4847202;29;20298;-71
2023/01/10 08:27:02;;;;;;;;;;;4.40;99.90;;;;;;4851909;29;19934;-71
2023/01/10 08:29:28;;;;;;;;;;;4.40;99.90;;;;;;4850437;29;19924;-71
2023/01/10 08:31:53;;;;;;;;;;;4.40;99.90;;;;;;4860495;29;19932;-72
2023/01/10 08:34:19;;;;;;;;;;;4.40;99.90;;;;;;4841003;29;19924;-71
2023/01/10 08:36:48;;;;;;;;;;;4.40;99.90;;;;;;4853070;29;19980;-71
2023/01/10 08:39:14;;;;;;;;;;;4.40;99.90;;;;;;4839954;29;19928;-71
2023/01/10 08:41:40;;;;;;;;;;;4.50;99.90;;;;;;4843997;29;19924;-71
2023/01/10 08:44:05;;;;;;;;;;;4.50;99.90;;;;;;4838505;29;19925;-71
2023/01/10 08:46:31;;;;;;;;;;;4.60;99.90;;;;;;4853375;29;20373;-71
2023/01/10 08:48:56;;;;;;;;;;;4.60;99.90;;;;;;4841486;29;19966;-70
2023/01/10 08:51:22;;;;;;;;;;;4.60;99.90;;;;;;4842696;29;19931;-71
2023/01/10 08:53:47;;;;;;;;;;;4.70;99.90;;;;;;4841187;29;19939;-71
2023/01/10 08:56:13;;;;;;;;;;;4.70;99.90;;;;;;4837751;29;19951;-70
2023/01/10 08:58:38;;;;;;;;;;;4.80;99.90;;;;;;4848789;29;20001;-70
2023/01/10 09:01:05;;;;;;;;;;;4.90;99.90;;;;;;4856079;29;19935;-71
2023/01/10 09:03:31;;;;;;;;;;;5.00;99.90;;;;;;4834107;29;19932;-71
2023/01/10 09:06:00;;;;;;;;;;;5.10;99.90;;;;;;4855954;29;19924;-70
2023/01/10 09:08:26;;;;;;;;;;;5.20;99.90;;;;;;4855205;29;19924;-71
2023/01/10 09:10:52;;;;;;;;;;;5.30;99.90;;;;;;4845792;29;20342;-71
2023/01/10 09:13:18;;;;;;;;;;;5.40;99.90;;;;;;4852001;29;19924;-71
2023/01/10 09:15:44;;;;;;;;;;;5.50;99.90;;;;;;4849028;29;19923;-71
2023/01/10 09:18:16;;;;;;;;;;;5.60;99.90;;;;;;4849598;29;20288;-71
2023/01/10 09:20:42;;;;;;;;;;;5.70;99.90;;;;;;4855238;29;19928;-71
2023/01/10 09:23:16;;;;;;;;;;;5.70;99.90;;;;;;4852440;29;19947;-71
2023/01/10 09:25:42;;;;;;;;;;;5.80;99.90;;;;;;4875183;29;19939;-71
2023/01/10 09:28:08;;;;;;;;;;;5.90;99.90;;;;;;4865042;29;19924;-71
2023/01/10 09:30:33;;;;;;;;;;;5.90;99.90;;;;;;4851001;29;19924;-71
2023/01/10 09:32:59;;;;;;;;;;;6.00;99.90;;;;;;4849001;29;19928;-71
2023/01/10 09:35:25;;;;;;;;;;;6.00;99.90;;;;;;4856823;29;19971;-71
2023/01/10 09:37:55;;;;;;;;;;;6.10;99.90;;;;;;4859004;29;20018;-71
2023/01/10 09:40:27;;;;;;;;;;;6.10;99.90;;;;;;4844046;29;19939;-71
2023/01/10 09:42:55;;;;;;;;;;;6.10;99.90;;;;;;4859082;29;19955;-71
2023/01/10 09:45:24;;;;;;;;;;;6.10;99.90;;;;;;4859802;29;19995;-70
2023/01/10 09:48:04;;;;;;;;;;;6.10;99.90;;;;;;4858080;29;19923;-71
2023/01/10 09:50:29;;;;;;;;;;;6.20;99.90;;;;;;4859786;29;20436;-70
2023/01/10 09:52:57;;;;;;;;;;;6.20;99.90;;;;;;4855851;29;19976;-70
2023/01/10 09:55:28;;;;;;;;;;;6.20;99.90;;;;;;4850546;29;20030;-70
2023/01/10 09:57:56;;;;;;;;;;;6.20;99.90;;;;;;4853880;29;19979;-70
2023/01/10 10:00:23;;;;;;;;;;;6.20;99.90;;;;;;4858502;29;19934;-70
2023/01/10 10:02:51;;;;;;;;;;;6.20;99.90;;;;;;4858262;29;19928;-70
2023/01/10 10:05:23;;;;;;;;;;;6.30;99.90;;;;;;4859104;29;19956;-70
2023/01/10 10:07:53;;;;;;;;;;;6.30;99.90;;;;;;4858382;29;19927;-70
2023/01/10 10:10:39;;;;;;;;;;;6.30;99.90;;;;;;4858311;29;19951;-70
2023/01/10 10:13:05;;;;;;;;;;;6.30;99.90;;;;;;4857477;29;19971;-70
2023/01/10 10:15:33;;;;;;;;;;;6.40;99.90;;;;;;4858613;29;20056;-70
2023/01/10 10:18:22;;;;;;;;;;;6.40;99.90;;;;;;4858183;29;19927;-70
2023/01/10 10:20:57;;;;;;;;;;;6.40;99.90;;;;;;4847872;29;19931;-70
2023/01/10 10:23:34;;;;;;;;;;;6.40;99.90;;;;;;4854012;29;19935;-70
2023/01/10 10:26:00;;;;;;;;;;;6.40;99.90;;;;;;4859172;29;19975;-70
2023/01/10 10:28:42;;;;;;;;;;;6.30;99.90;;;;;;4858209;29;20389;-70
2023/01/10 10:31:20;;;;;;;;;;;6.30;99.90;;;;;;4855480;29;20194;-70
2023/01/10 10:33:49;;;;;;;;;;;6.40;99.90;;;;;;4857820;29;19931;-70
2023/01/10 10:36:20;;;;;;;;;;;6.40;99.90;;;;;;4857736;29;19979;-70
2023/01/10 10:38:46;;;;;;;;;;;6.40;99.90;;;;;;4858488;29;19971;-70
2023/01/10 10:41:16;;;;;;;;;;;6.40;99.90;;;;;;4857834;29;19928;-70
2023/01/10 10:43:44;;;;;;;;;;;6.40;99.90;;;;;;4858240;29;19940;-70
2023/01/10 10:46:12;;;;;;;;;;;6.40;99.90;;;;;;4858444;29;19998;-70
2023/01/10 10:48:57;;;;;;;;;;;6.40;99.90;;;;;;4855703;29;20369;-70
2023/01/10 10:51:46;;;;;;;;;;;6.40;99.90;;;;;;4844123;29;19932;-70
2023/01/10 10:54:13;;;;;;;;;;;6.40;99.90;;;;;;4856163;29;19936;-70
2023/01/10 10:56:39;;;;;;;;;;;6.40;99.90;;;;;;4847190;29;20046;-70
2023/01/10 10:59:05;;;;;;;;;;;6.50;99.90;;;;;;4858286;29;19967;-70
2023/01/10 11:01:30;;;;;;;;;;;6.50;99.90;;;;;;4855028;29;20265;-71
2023/01/10 11:04:00;;;;;;;;;;;6.40;99.90;;;;;;4855698;29;20158;-71
2023/01/10 11:06:28;;;;;;;;;;;6.40;99.90;;;;;;4844725;29;19924;-71
2023/01/10 11:08:56;;;;;;;;;;;6.40;99.90;;;;;;4857729;29;20412;-71
2023/01/10 11:11:26;;;;;;;;;;;6.40;99.90;;;;;;4857183;29;20055;-69
2023/01/10 11:13:56;;;;;;;;;;;6.40;99.90;;;;;;4834255;29;19962;-70
2023/01/10 11:16:23;;;;;;;;;;;6.40;99.90;;;;;;4857628;29;19928;-70
2023/01/10 11:19:07;;;;;;;;;;;6.30;99.90;;;;;;4857026;29;19979;-70
2023/01/10 11:21:34;;;;;;;;;;;6.40;99.90;;;;;;4857263;29;20436;-70
2023/01/10 11:23:59;;;;;;;;;;;6.30;99.90;;;;;;4856082;29;19923;-70
2023/01/10 11:26:27;;;;;;;;;;;6.30;99.90;;;;;;4856877;29;19930;-70
2023/01/10 11:29:03;;;;;;;;;;;6.30;99.90;;;;;;4857582;29;19931;-70
2023/01/10 11:31:29;;;;;;;;;;;6.30;99.90;;;;;;4860232;29;19983;-70
2023/01/10 11:33:55;;;;;;;;;;;6.30;99.90;;;;;;4856799;29;19928;-70
2023/01/10 11:36:20;;;;;;;;;;;6.30;99.90;;;;;;4835462;29;19932;-70
2023/01/10 11:39:02;;;;;;;;;;;6.30;99.90;;;;;;4848317;29;19930;-70
2023/01/10 11:41:33;;;;;;;;;;;6.30;99.90;;;;;;4847162;29;19935;-70
2023/01/10 11:44:19;;;;;;;;;;;6.20;99.90;;;;;;4846238;29;20301;-70
2023/01/10 11:46:45;;;;;;;;;;;6.30;99.90;;;;;;4832917;29;20052;-70
2023/01/10 11:49:18;;;;;;;;;;;6.20;99.90;;;;;;4847155;29;20018;-70
2023/01/10 11:51:46;;;;;;;;;;;6.20;99.90;;;;;;4842058;29;20019;-70
2023/01/10 11:54:14;;;;;;;;;;;6.20;99.90;;;;;;4840245;29;19932;-70
2023/01/10 11:56:42;;;;;;;;;;;6.20;99.90;;;;;;4850398;29;19954;-70
2023/01/10 11:59:17;;;;;;;;;;;6.10;99.90;;;;;;4838156;29;20081;-70
2023/01/10 12:01:46;;;;;;;;;;;6.10;99.90;;;;;;4851194;29;20059;-70
2023/01/10 12:04:19;;;;;;;;;;;6.10;99.90;;;;;;4856042;29;19935;-70
2023/01/10 12:06:47;;;;;;;;;;;6.10;99.90;;;;;;4854257;29;20027;-70
2023/01/10 12:09:31;;;;;;;;;;;6.00;99.90;;;;;;4853342;29;19924;-70
2023/01/10 12:12:01;;;;;;;;;;;6.00;99.90;;;;;;4840303;29;19928;-70
2023/01/10 12:14:26;;;;;;;;;;;6.00;99.90;;;;;;4856741;29;19931;-70
2023/01/10 12:16:59;;;;;;;;;;;5.90;99.90;;;;;;4841472;29;19928;-70
2023/01/10 12:19:25;;;;;;;;;;;5.90;99.90;;;;;;4842325;29;19979;-70
2023/01/10 12:21:51;;;;;;;;;;;5.90;99.90;;;;;;4857124;29;20353;-70
2023/01/10 12:24:16;;;;;;;;;;;5.90;99.90;;;;;;4857561;29;19993;-70
2023/01/10 12:26:42;;;;;;;;;;;5.90;99.90;;;;;;4840823;29;19976;-70
2023/01/10 12:29:11;;;;;;;;;;;5.90;99.90;;;;;;4842150;29;19923;-70
2023/01/10 12:31:38;;;;;;;;;;;5.90;99.90;;;;;;4859489;29;19932;-70
2023/01/10 12:34:09;;;;;;;;;;;5.80;99.90;;;;;;4855174;29;19924;-70
2023/01/10 12:36:39;;;;;;;;;;;5.80;99.90;;;;;;4847252;29;19936;-72
2023/01/10 12:39:22;;;;;;;;;;;5.80;99.90;;;;;;4853279;29;19927;-71
2023/01/10 12:44:36;;;;;;;;;;;5.80;99.90;;;;;;4878498;29;20694;-72
2023/01/10 12:47:06;;;;;;;;;;;5.80;99.90;;;;;;4850580;29;19932;-72
2023/01/10 12:49:33;;;;;;;;;;;5.80;99.90;;;;;;4859284;29;20307;-71
2023/01/10 12:52:01;;;;;;;;;;;5.80;99.90;;;;;;4853935;29;20385;-71
2023/01/10 12:54:28;;;;;;;;;;;5.80;99.90;;;;;;4847030;29;20014;-72
2023/01/10 12:56:54;;;;;;;;;;;5.70;99.90;;;;;;4841907;29;19940;-71
2023/01/10 12:59:24;;;;;;;;;;;5.70;99.90;;;;;;4854095;29;19935;-71
2023/01/10 13:02:00;;;;;;;;;;;5.70;99.90;;;;;;4859948;29;19934;-71
2023/01/10 13:04:27;;;;;;;;;;;5.70;99.90;;;;;;4857317;29;19925;-71
2023/01/10 13:06:53;;;;;;;;;;;5.70;99.90;;;;;;4859831;29;19924;-71
2023/01/10 13:09:20;;;;;;;;;;;5.70;99.90;;;;;;4857187;29;19931;-71
2023/01/10 13:11:51;;;;;;;;;;;5.70;99.90;;;;;;4857647;29;19988;-72
2023/01/10 13:14:17;;;;;;;;;;;5.60;99.90;;;;;;4852377;29;19928;-72
2023/01/10 13:16:51;;;;;;;;;;;5.60;99.90;;;;;;4849117;29;19935;-72
2023/01/10 13:19:20;;;;;;;;;;;5.60;99.90;;;;;;4848866;29;19971;-71
2023/01/10 13:21:46;;;;;;;;;;;5.60;99.90;;;;;;4855382;29;19928;-72
2023/01/10 13:24:16;;;;;;;;;;;5.60;99.90;;;;;;4860448;29;19939;-72
2023/01/10 13:26:56;;;;;;;;;;;5.60;99.90;;;;;;4875697;29;19928;-72
2023/01/10 13:29:29;;;;;;;;;;;5.50;99.90;;;;;;4859239;29;20285;-72
2023/01/10 13:31:56;;;;;;;;;;;5.50;99.90;;;;;;4864887;29;19928;-71
2023/01/10 13:34:32;;;;;;;;;;;5.50;99.90;;;;;;4856452;29;19986;-71
2023/01/10 13:37:00;;;;;;;;;;;5.50;99.90;;;;;;4853675;29;19962;-72
2023/01/10 13:39:28;;;;;;;;;;;5.50;99.90;;;;;;4850727;29;19924;-71
2023/01/10 13:45:00;;;;;;;;;;;5.50;99.90;;;;;;4847511;29;19932;-72
2023/01/10 13:47:38;;;;;;;;;;;5.50;99.90;;;;;;4858656;29;20226;-72
2023/01/10 13:50:32;;;;;;;;;;;5.50;99.90;;;;;;4853630;29;19931;-71
2023/01/10 13:53:05;;;;;;;;;;;5.50;99.90;;;;;;4845800;29;20371;-72
2023/01/10 13:55:37;;;;;;;;;;;5.40;99.90;;;;;;4851608;29;19938;-72
2023/01/10 13:58:15;;;;;;;;;;;5.50;99.90;;;;;;4857705;29;19932;-72
2023/01/10 14:03:45;;;;;;;;;;;5.40;99.90;;;;;;4856819;29;19924;-72
2023/01/10 14:06:18;;;;;;;;;;;5.40;99.90;;;;;;4854685;29;20317;-72
2023/01/10 14:09:13;;;;;;;;;;;5.40;99.90;;;;;;4842457;29;19978;-72
2023/01/10 14:11:41;;;;;;;;;;;5.40;99.90;;;;;;4825647;29;20472;-73
2023/01/10 14:14:14;;;;;;;;;;;5.40;99.90;;;;;;4864182;29;20019;-72
2023/01/10 14:16:42;;;;;;;;;;;5.40;99.90;;;;;;4857811;29;19934;-72
2023/01/10 14:19:22;;;;;;;;;;;5.40;99.90;;;;;;4858995;29;20435;-71
2023/01/10 14:21:51;;;;;;;;;;;5.50;99.90;;;;;;4832212;29;20022;-71
2023/01/10 14:24:23;;;;;;;;;;;5.50;99.90;;;;;;4843419;29;19924;-71
2023/01/10 14:26:49;;;;;;;;;;;5.40;99.90;;;;;;4846547;29;20323;-71
2023/01/10 14:29:15;;;;;;;;;;;5.40;99.90;;;;;;4851743;29;20292;-71
2023/01/10 14:31:42;;;;;;;;;;;5.50;99.90;;;;;;4836644;29;19976;-71
2023/01/10 14:34:18;;;;;;;;;;;5.50;99.90;;;;;;4848235;29;19931;-71
2023/01/10 14:36:47;;;;;;;;;;;5.50;99.90;;;;;;4842953;29;20556;-71
2023/01/10 14:39:14;;;;;;;;;;;5.50;99.90;;;;;;4855835;29;20042;-71
2023/01/10 14:41:44;;;;;;;;;;;5.50;99.90;;;;;;4846950;29;20225;-71
2023/01/10 14:44:15;;;;;;;;;;;5.50;99.90;;;;;;4843517;29;20312;-71
2023/01/10 14:46:41;;;;;;;;;;;5.50;99.90;;;;;;4857732;29;20039;-71
2023/01/10 14:49:23;;;;;;;;;;;5.50;99.90;;;;;;4848095;29;20014;-71
2023/01/10 14:51:49;;;;;;;;;;;5.50;99.90;;;;;;4848075;29;19976;-71
2023/01/10 14:54:16;;;;;;;;;;;5.50;99.90;;;;;;4857935;29;19924;-71
2023/01/10 14:56:43;;;;;;;;;;;5.50;99.90;;;;;;4844527;29;19984;-71
2023/01/10 14:59:26;;;;;;;;;;;5.50;99.90;;;;;;4857865;29;20026;-71